Hardy, Arkansas
Current Conditions -  °F | °C
As of 8:35 PM on Saturday 20 Dec 2014 (Local Time) from KARG Reporting Station
Overcast Overcast  
Wind Chill: 38°   Ceiling: 2600
Heat Index: 41°   Visibility: 7mi
Dew Point: 36°   Wind: 5mph
Humidity: 81%   Direction: 100°E
Pressure: 30.25"   Gusts: NA
Location:  36.32°N, 91.48°W
Report Text: KARG 210235Z AUTO 10004KT 7SM OVC026 05/02 A3025 RMK AO1
Loading
Personal Weather Stations






























Interactive Weather Map New forecast layout! Learn more

10-Day Weather Forecast

Advertisements
Track Severe Weather on mobile